Arthur Brusco — WDC3449 — position and weather

sailwx.info

Track history (hours):
 
Tides and Currents Weather Stations Pressure Air Temp Water Temp Dewpoint Dewpoint Depression Visibility Wind Speed Wind Dir Waves Ship Positions

Arthur Brusco

Owner: Brusco Tug & Barge, Inc, Longview, WA. More information available from US FCC via Universal Licensing System and Coast Guard Vessel Documentation Center.

Last reported at 2017-Jun-25 04:08 UTC. Time now 2017-Jun-25 10:30 UTC.
Position N 37°59' W 122°26'.

Length 35 m; draft 3.2 m.

Type: Other ship. MMSI: 271040404.

Date/timePositionNaut miles runAvg speedWind from/ knotsBaromVisibWave heightAir tempDewpointWater temp
2017-Jun-25 04:08N 37°59' W 122°26'0 0.0
2017-Jun-25 04:00N 37°59' W 122°26'0 0.0
2017-Jun-25 03:31N 37°59' W 122°26'0 0.1
2017-Jun-25 03:00N 37°59' W 122°26'4 8.2
2017-Jun-25 02:31N 38°02' W 122°22'5 9.3
2017-Jun-25 01:59N 38°03' W 122°17'510.4
2017-Jun-25 01:30N 38°03' W 122°10'2 0.5
2017-Jun-24 20:38N 38°04' W 122°13'510.7
2017-Jun-24 20:12N 38°03' W 122°19'310.2
2017-Jun-24 19:57N 38°02' W 122°22'510.8
2017-Jun-24 19:30N 37°58' W 122°26'3 5.3
2017-Jun-24 19:00N 37°56' W 122°25'1 3.0
2017-Jun-24 18:31N 37°57' W 122°26'2 4.5
2017-Jun-24 18:01N 37°59' W 122°26'0 0.0
2017-Jun-24 17:31N 37°59' W 122°26'0 0.0
2017-Jun-24 17:01N 37°59' W 122°26'0 0.1
2017-Jun-24 16:30N 37°59' W 122°26'0 0.1
2017-Jun-24 16:01N 37°59' W 122°26'0 0.1
2017-Jun-24 15:31N 37°59' W 122°26'0 0.0
2017-Jun-24 15:01N 37°59' W 122°26'4 3.5
2017-Jun-24 14:01N 37°56' W 122°25'0 0.4
2017-Jun-24 13:31N 37°56' W 122°25'0 0.4
2017-Jun-24 13:00N 37°55' W 122°25'0 0.1
2017-Jun-24 12:30N 37°56' W 122°25'2 3.3
2017-Jun-24 12:01N 37°57' W 122°26'3 5.4
2017-Jun-24 11:30N 37°60' W 122°25'5 9.6
2017-Jun-24 10:56N 38°03' W 122°19'510.4
2017-Jun-24 10:30N 38°04' W 122°14'4 8.8
2017-Jun-24 10:00N 38°02' W 122°09'4 7.8
2017-Jun-24 09:27N 38°04' W 122°04'4 7.0
2017-Jun-24 08:50N 38°03' W 121°58'2 6.4
2017-Jun-24 08:30N 38°03' W 121°55'2 0.7
2017-Jun-24 06:17N 38°03' W 121°53'10 9.7
2017-Jun-24 05:17N 38°03' W 122°05'3 9.2
2017-Jun-24 05:00N 38°02' W 122°08'5 8.7
2017-Jun-24 04:29N 38°04' W 122°14'4 8.7
2017-Jun-24 03:58N 38°03' W 122°19'4 9.1
2017-Jun-24 03:30N 38°01' W 122°24'4 8.4
2017-Jun-24 03:01N 37°57' W 122°26'1 2.6
2017-Jun-24 02:31N 37°56' W 122°25'2 4.5
2017-Jun-24 02:00N 37°58' W 122°26'1 2.6
2017-Jun-24 01:30N 37°59' W 122°26'0 0.1
2017-Jun-24 01:00N 37°59' W 122°26'0 0.1
2017-Jun-24 00:31N 37°59' W 122°26'0 0.0
2017-Jun-24 00:00N 37°59' W 122°26'0 0.1
2017-Jun-23 23:31N 37°59' W 122°26'0 0.1
2017-Jun-23 23:00N 37°59' W 122°26'0 0.0
2017-Jun-23 22:31N 37°59' W 122°26'0 0.0
2017-Jun-23 22:01N 37°59' W 122°26'0 0.1
2017-Jun-23 21:31N 37°59' W 122°26'0 0.8
2017-Jun-23 21:01N 37°59' W 122°27'4 7.1
2017-Jun-23 20:31N 37°56' W 122°25'0 0.3
2017-Jun-23 20:01N 37°56' W 122°25'0 0.2
2017-Jun-23 19:30N 37°56' W 122°25'1 1.9
2017-Jun-23 19:01N 37°57' W 122°26'3 5.1
2017-Jun-23 18:31N 37°59' W 122°26'0 0.0
2017-Jun-23 18:01N 37°59' W 122°26'0 0.0
2017-Jun-23 17:31N 37°59' W 122°26'0 0.0
2017-Jun-23 17:01N 37°59' W 122°26'0 0.1
2017-Jun-23 16:31N 37°59' W 122°26'0 0.0
2017-Jun-23 16:00N 37°59' W 122°26'0 0.2
2017-Jun-23 15:31N 37°59' W 122°26'0 0.1
2017-Jun-23 15:01N 37°59' W 122°26'0 0.0
2017-Jun-23 14:01N 37°59' W 122°26'0 0.0
2017-Jun-23 13:30N 37°59' W 122°26'0 0.0
2017-Jun-23 13:01N 37°59' W 122°26'0 0.0
2017-Jun-23 12:31N 37°59' W 122°26'0 0.0
2017-Jun-23 12:00N 37°59' W 122°26'0 0.1
2017-Jun-23 11:31N 37°59' W 122°26'0 0.1
2017-Jun-23 11:00N 37°59' W 122°26'0 0.0
2017-Jun-23 10:31N 37°59' W 122°26'0 0.1
2017-Jun-23 10:01N 37°59' W 122°26'0 0.0
2017-Jun-23 09:31N 37°59' W 122°26'0 0.1
2017-Jun-23 09:01N 37°59' W 122°26'0 0.0
2017-Jun-23 08:31N 37°59' W 122°26'0 0.1
2017-Jun-23 08:00N 37°59' W 122°26'0 0.1
2017-Jun-23 07:30N 37°59' W 122°26'0 0.1
2017-Jun-23 07:00N 37°59' W 122°26'0 0.1
2017-Jun-23 06:31N 37°59' W 122°26'3 6.7
2017-Jun-23 06:01N 37°56' W 122°25'1 2.0
2017-Jun-23 05:31N 37°57' W 122°26'2 3.7
2017-Jun-23 05:00N 37°59' W 122°26'0 0.8
2017-Jun-23 04:31N 37°59' W 122°27'0 0.0
2017-Jun-23 04:01N 37°59' W 122°27'0 0.1
2017-Jun-23 03:31N 37°59' W 122°27'0 0.0
2017-Jun-23 03:01N 37°59' W 122°27'0 0.0
2017-Jun-23 02:30N 37°59' W 122°27'0 0.0
2017-Jun-23 02:01N 37°59' W 122°27'0 0.0
2017-Jun-23 01:31N 37°59' W 122°27'0 0.1
2017-Jun-23 01:00N 37°59' W 122°27'0 0.0
2017-Jun-23 00:29N 37°59' W 122°27'0 0.1
2017-Jun-22 23:40N 37°59' W 122°27'0 0.0
2017-Jun-22 23:26N 37°59' W 122°27'0 0.0
2017-Jun-22 23:00N 37°59' W 122°27'0 0.2
2017-Jun-22 22:31N 37°59' W 122°27'0 0.0
2017-Jun-22 22:00N 37°59' W 122°27'0 0.1
2017-Jun-22 21:27N 37°59' W 122°27'0 0.0
2017-Jun-22 21:00N 37°59' W 122°27'0 0.0
2017-Jun-22 20:31N 37°59' W 122°27'0 0.1
2017-Jun-22 20:00N 37°59' W 122°27'0 0.1
2017-Jun-22 19:31N 37°59' W 122°27'0 0.0
2017-Jun-22 19:00N 37°59' W 122°27'0 0.0
2017-Jun-22 18:30N 37°59' W 122°27'0 0.0
2017-Jun-22 18:00N 37°59' W 122°27'0 0.0
2017-Jun-22 17:31N 37°59' W 122°27'0 0.0
2017-Jun-22 17:01N 37°59' W 122°27'0 0.2
2017-Jun-22 16:31N 37°59' W 122°27'3 6.3
2017-Jun-22 15:59N 38°01' W 122°23'4 8.9
2017-Jun-22 15:31N 38°03' W 122°19'5 9.8
2017-Jun-22 14:59N 38°03' W 122°12'5 8.4
2017-Jun-22 14:25N 38°03' W 122°06'2 0.4
2017-Jun-22 09:16N 38°02' W 122°08'2 5.0
2017-Jun-22 08:57N 38°03' W 122°10'3 6.7
2017-Jun-22 08:30N 38°04' W 122°14'6 9.0
2017-Jun-22 07:47N 38°02' W 122°22'4 8.8
2017-Jun-22 07:18N 37°59' W 122°26'3 8.6
2017-Jun-22 07:00N 37°56' W 122°26'0 0.8
2017-Jun-22 06:31N 37°56' W 122°26'3 6.0
2017-Jun-22 05:59N 37°59' W 122°26'0 0.0
2017-Jun-22 05:30N 37°59' W 122°26'0 0.0
2017-Jun-22 04:53N 37°59' W 122°26'0 0.0
2017-Jun-22 04:28N 37°59' W 122°26'0 0.0
2017-Jun-22 03:59N 37°59' W 122°26'0 0.0
2017-Jun-22 03:30N 37°59' W 122°26'0 0.0
2017-Jun-22 03:00N 37°59' W 122°26'0 0.0
2017-Jun-22 02:29N 37°59' W 122°26'0 0.0
2017-Jun-22 02:00N 37°59' W 122°26'2 2.9
2017-Jun-22 01:18N 38°01' W 122°25'0 1.2
2017-Jun-22 00:58N 38°00' W 122°25'3 4.7
2017-Jun-22 00:21N 37°58' W 122°26'2 5.4
2017-Jun-22 00:00N 37°56' W 122°25'1 1.3
2017-Jun-21 23:30N 37°56' W 122°26'3 2.3
2017-Jun-21 22:17N 37°59' W 122°26'0 0.0
2017-Jun-21 21:00N 37°59' W 122°26'0 0.1
2017-Jun-21 20:30N 37°59' W 122°26'1 1.7
2017-Jun-21 19:58N 37°58' W 122°26'3 5.5
2017-Jun-21 19:30N 37°56' W 122°25'2 3.9
2017-Jun-21 19:01N 37°58' W 122°26'1 2.7
2017-Jun-21 18:30N 37°59' W 122°27'0 0.8
2017-Jun-21 18:00N 37°59' W 122°26'0 0.0
2017-Jun-21 17:30N 37°59' W 122°26'0 0.0
2017-Jun-21 16:58N 37°59' W 122°26'0 0.0
2017-Jun-21 16:30N 37°59' W 122°26'0 0.0
2017-Jun-21 15:58N 37°59' W 122°26'0 0.0
2017-Jun-21 15:31N 37°59' W 122°26'0 0.0
2017-Jun-21 15:01N 37°59' W 122°26'0 0.0
2017-Jun-21 14:27N 37°59' W 122°26'4 4.0
2017-Jun-21 13:28N 38°02' W 122°23'7 9.6
2017-Jun-21 12:41N 38°04' W 122°13'6 8.4
2017-Jun-21 11:59N 38°03' W 122°06'11 4.4
2017-Jun-21 09:24N 38°04' W 121°51'0 0.3
2017-Jun-21 08:43N 38°04' W 121°52'1 4.2
2017-Jun-21 08:27N 38°03' W 121°52'16 8.5
2017-Jun-21 06:31N 38°04' W 122°13'0 8.6
2017-Jun-21 06:30N 38°04' W 122°13'7 9.1
2017-Jun-21 05:44N 38°02' W 122°22'2 8.9
2017-Jun-21 05:28N 38°00' W 122°24'4 8.2
2017-Jun-21 04:59N 37°56' W 122°26'1 2.4
2017-Jun-21 04:31N 37°56' W 122°25'2 3.0
2017-Jun-21 04:01N 37°57' W 122°26'2 4.0
2017-Jun-21 03:30N 37°59' W 122°27'0 0.0
2017-Jun-21 03:00N 37°59' W 122°27'0 0.0
2017-Jun-21 02:29N 37°59' W 122°27'0 0.0
2017-Jun-21 02:00N 37°59' W 122°27'0 0.0
2017-Jun-21 01:29N 37°59' W 122°27'0 0.0
2017-Jun-21 01:01N 37°59' W 122°27'0 1.0
2017-Jun-21 00:30N 37°59' W 122°26'1 1.6
2017-Jun-20 23:54N 37°60' W 122°25'3 6.0
2017-Jun-20 23:27N 37°57' W 122°26'2 3.4
2017-Jun-20 23:00N 37°56' W 122°25'3 6.0
2017-Jun-20 22:30N 37°58' W 122°26'2 3.0
2017-Jun-20 21:48N 37°56' W 122°27'3 9.1
2017-Jun-20 21:30N 37°54' W 122°26'510.6
2017-Jun-20 21:01N 37°49' W 122°24'4 7.5
2017-Jun-20 20:31N 37°49' W 122°20'0 0.7
2017-Jun-20 20:00N 37°49' W 122°20'3 6.9
2017-Jun-20 19:30N 37°49' W 122°24'0 0.2
2017-Jun-20 19:01N 37°49' W 122°24'0 0.1
2017-Jun-20 18:30N 37°49' W 122°24'0 0.2
2017-Jun-20 18:00N 37°49' W 122°24'0 0.0
2017-Jun-20 17:30N 37°49' W 122°24'0 0.0
2017-Jun-20 17:01N 37°49' W 122°24'0 0.0
2017-Jun-20 16:31N 37°49' W 122°24'0 0.0
2017-Jun-20 16:01N 37°49' W 122°24'4 8.1
2017-Jun-20 15:31N 37°53' W 122°25'3 6.1
2017-Jun-20 15:01N 37°56' W 122°25'4 3.7
2017-Jun-20 14:00N 37°59' W 122°26'0 0.5
2017-Jun-20 13:30N 37°59' W 122°27'0 0.0
2017-Jun-20 13:00N 37°59' W 122°27'0 0.2
2017-Jun-20 12:31N 37°59' W 122°27'0 0.1
2017-Jun-20 12:01N 37°59' W 122°27'0 0.0
2017-Jun-20 11:31N 37°59' W 122°27'0 0.0
2017-Jun-20 11:01N 37°59' W 122°27'0 0.0
2017-Jun-20 10:30N 37°59' W 122°27'0 0.0
2017-Jun-20 10:01N 37°59' W 122°27'1 1.5
2017-Jun-20 09:30N 37°59' W 122°26'6 9.8
2017-Jun-20 08:54N 38°03' W 122°20'4 9.7
2017-Jun-20 08:30N 38°04' W 122°15'5 9.9
2017-Jun-20 08:00N 38°02' W 122°09'4 0.6
2017-Jun-20 02:08N 38°04' W 122°13'1 9.1
2017-Jun-20 01:59N 38°04' W 122°15'5 7.9
2017-Jun-20 01:17N 38°02' W 122°21'2 8.7
2017-Jun-20 01:00N 38°00' W 122°24'4 8.6
2017-Jun-20 00:30N 37°56' W 122°26'1 2.1
2017-Jun-20 00:00N 37°56' W 122°25'3 5.1
2017-Jun-19 23:31N 37°58' W 122°26'1 2.4
2017-Jun-19 23:01N 37°59' W 122°26'0 0.1
2017-Jun-19 22:30N 37°59' W 122°26'0 0.2
2017-Jun-19 22:01N 37°59' W 122°26'0 0.1
2017-Jun-19 21:31N 37°59' W 122°26'0 0.3
2017-Jun-19 21:01N 37°59' W 122°26'2 3.4
2017-Jun-19 20:30N 38°00' W 122°25'2 3.3
2017-Jun-19 20:01N 37°59' W 122°26'3 5.2
2017-Jun-19 19:31N 37°56' W 122°26'1 1.6
2017-Jun-19 19:01N 37°56' W 122°25'3 6.5
2017-Jun-19 18:31N 37°59' W 122°26'1 1.0
2017-Jun-19 17:46N 37°59' W 122°27'0 0.0
2017-Jun-19 17:24N 37°59' W 122°27'0 0.0
2017-Jun-19 17:00N 37°59' W 122°27'0 0.0
2017-Jun-19 16:29N 37°59' W 122°27'0 0.0
2017-Jun-19 15:50N 37°59' W 122°27'0 0.0
2017-Jun-19 15:24N 37°59' W 122°27'0 0.0
2017-Jun-19 15:00N 37°59' W 122°27'3 3.1
2017-Jun-19 14:00N 37°56' W 122°26'4 7.1
2017-Jun-19 13:30N 37°54' W 122°22'3 5.2
2017-Jun-19 13:00N 37°56' W 122°25'3 5.3
2017-Jun-19 12:30N 37°54' W 122°22'0 0.0
2017-Jun-19 12:00N 37°54' W 122°22'0 0.0
2017-Jun-19 11:30N 37°54' W 122°22'0 0.0
2017-Jun-19 11:00N 37°54' W 122°22'0 0.0
2017-Jun-19 10:30N 37°54' W 122°22'0 0.0
2017-Jun-19 10:00N 37°54' W 122°22'2 5.0
2017-Jun-19 09:31N 37°55' W 122°25'0 0.8
2017-Jun-19 09:00N 37°56' W 122°25'4 7.1
2017-Jun-19 08:30N 37°59' W 122°27'0 0.0
2017-Jun-18 19:39N 37°59' W 122°27'0 1.5
2017-Jun-18 19:30N 37°59' W 122°27'4 7.1
2017-Jun-18 18:59N 38°01' W 122°23'611.3
2017-Jun-18 18:27N 38°04' W 122°16'510.7
2017-Jun-18 18:00N 38°02' W 122°10'14 3.6
2017-Jun-18 14:01N 38°04' W 121°52'11 8.6
2017-Jun-18 12:47N 38°03' W 122°05'2 8.8
2017-Jun-18 12:30N 38°02' W 122°08'4 7.7
2017-Jun-18 12:00N 38°03' W 122°13'4 7.7
2017-Jun-18 11:30N 38°03' W 122°17'4 7.8
2017-Jun-18 11:00N 38°02' W 122°22'6 8.5
2017-Jun-18 10:19N 37°57' W 122°26'2 5.3
2017-Jun-18 10:00N 37°55' W 122°25'0 0.1
2017-Jun-18 07:48N 37°55' W 122°25'0 0.0
2017-Jun-18 07:30N 37°55' W 122°25'0 0.0
2017-Jun-18 07:00N 37°55' W 122°25'0 0.0
2017-Jun-18 06:30N 37°55' W 122°25'0 0.0
2017-Jun-18 06:00N 37°55' W 122°25'0 0.0
2017-Jun-18 05:30N 37°55' W 122°25'0 0.0
2017-Jun-18 05:00N 37°55' W 122°25'0 0.2
2017-Jun-18 04:30N 37°55' W 122°25'1 1.2
2017-Jun-18 04:00N 37°56' W 122°25'3 6.0
2017-Jun-18 03:30N 37°58' W 122°26'1 1.5
2017-Jun-18 02:59N 37°59' W 122°27'0 0.1
2017-Jun-18 02:30N 37°59' W 122°27'0 0.0
2017-Jun-17 18:07N 37°59' W 122°27'0 3.0
2017-Jun-17 17:59N 37°59' W 122°26'611.4
2017-Jun-17 17:27N 38°03' W 122°20'511.4
2017-Jun-17 17:00N 38°04' W 122°14'4 0.8
2017-Jun-17 11:56N 38°02' W 122°09'4 8.5
2017-Jun-17 11:30N 38°04' W 122°13'5 8.1
2017-Jun-17 10:55N 38°03' W 122°19'4 8.8
2017-Jun-17 10:28N 38°01' W 122°23'4 9.1
2017-Jun-17 09:59N 37°57' W 122°26'2 3.2
2017-Jun-17 09:30N 37°56' W 122°25'3 5.4
2017-Jun-17 09:00N 37°54' W 122°22'0 0.0
2017-Jun-17 08:30N 37°54' W 122°22'0 0.0
2017-Jun-17 08:00N 37°54' W 122°22'0 0.0
2017-Jun-17 07:30N 37°54' W 122°22'0 0.0
2017-Jun-17 07:00N 37°54' W 122°22'0 0.0
2017-Jun-17 06:30N 37°54' W 122°22'0 0.0
2017-Jun-17 06:01N 37°54' W 122°22'0 0.0
2017-Jun-17 05:28N 37°54' W 122°22'0 0.0
2017-Jun-17 05:00N 37°54' W 122°22'1 2.4
2017-Jun-17 04:30N 37°54' W 122°24'2 3.4
2017-Jun-17 04:00N 37°56' W 122°25'3 6.5
2017-Jun-17 03:30N 37°59' W 122°26'0 0.9
2017-Jun-17 03:00N 37°59' W 122°26'0 0.0
2017-Jun-17 02:01N 37°59' W 122°26'0 0.0
2017-Jun-17 01:54N 37°59' W 122°26'0 0.0
2017-Jun-17 01:20N 37°59' W 122°26'0 0.0
2017-Jun-17 00:57N 37°59' W 122°26'0 0.0
2017-Jun-17 00:30N 37°59' W 122°26'0 0.0
2017-Jun-16 23:59N 37°59' W 122°26'0 0.0
2017-Jun-16 23:29N 37°59' W 122°26'0 0.0
2017-Jun-16 23:00N 37°59' W 122°26'0 0.1
2017-Jun-16 22:30N 37°59' W 122°26'0 0.0
2017-Jun-16 22:00N 37°59' W 122°26'0 0.0
2017-Jun-16 21:30N 37°59' W 122°26'0 0.0
2017-Jun-16 21:00N 37°59' W 122°26'0 0.1
2017-Jun-16 20:30N 37°59' W 122°26'0 0.1
2017-Jun-16 20:00N 37°59' W 122°26'0 0.0
2017-Jun-16 19:24N 37°59' W 122°26'0 0.0
2017-Jun-16 19:00N 37°59' W 122°26'0 0.1
2017-Jun-16 18:19N 37°59' W 122°26'0 0.0
2017-Jun-16 17:34N 37°59' W 122°26'0 0.0
2017-Jun-16 17:15N 37°59' W 122°26'0 0.0
2017-Jun-16 17:00N 37°59' W 122°26'0 0.0
2017-Jun-16 16:30N 37°59' W 122°26'4 7.0
2017-Jun-16 15:59N 38°01' W 122°23'511.2
2017-Jun-16 15:30N 38°03' W 122°17'510.4
2017-Jun-16 15:00N 38°02' W 122°10'3 0.5
2017-Jun-16 09:40N 38°04' W 122°13'1 8.2
2017-Jun-16 09:30N 38°04' W 122°15'4 8.4
2017-Jun-16 09:00N 38°03' W 122°20'6 9.4
2017-Jun-16 08:24N 37°59' W 122°25'3 8.1
2017-Jun-16 08:00N 37°56' W 122°25'3 5.5
2017-Jun-16 07:30N 37°58' W 122°26'1 1.0
2017-Jun-16 07:00N 37°59' W 122°27'0 0.0
2017-Jun-16 06:29N 37°59' W 122°27'0 0.0
2017-Jun-16 06:00N 37°59' W 122°27'0 0.0
2017-Jun-16 05:26N 37°59' W 122°27'0 0.0
2017-Jun-16 05:00N 37°59' W 122°27'0 0.1
2017-Jun-16 04:30N 37°59' W 122°27'0 0.0
2017-Jun-16 04:00N 37°59' W 122°27'0 0.2
2017-Jun-16 03:28N 37°59' W 122°27'0 0.0
2017-Jun-16 02:54N 37°59' W 122°27'0 0.0
2017-Jun-16 02:29N 37°59' W 122°27'0 0.1
2017-Jun-16 01:59N 37°59' W 122°27'0 0.1
2017-Jun-16 01:30N 37°59' W 122°27'0 0.0
2017-Jun-16 00:53N 37°59' W 122°27'0 0.0
2017-Jun-16 00:28N 37°59' W 122°27'0 0.0
2017-Jun-15 23:57N 37°59' W 122°27'0 0.0
2017-Jun-15 23:21N 37°59' W 122°27'0 0.0
2017-Jun-15 22:55N 37°59' W 122°27'0 0.0
2017-Jun-15 22:27N 37°59' W 122°27'0 0.0
2017-Jun-15 22:00N 37°59' W 122°27'0 0.2
2017-Jun-15 21:30N 37°59' W 122°27'610.3
2017-Jun-15 20:56N 38°02' W 122°21'512.3
2017-Jun-15 20:30N 38°04' W 122°14'711.1
2017-Jun-15 19:54N 38°03' W 122°05'3 0.6
2017-Jun-15 15:24N 38°02' W 122°09'3 7.4
2017-Jun-15 14:58N 38°03' W 122°12'8 7.8
2017-Jun-15 13:57N 38°02' W 122°22'6 7.7
2017-Jun-15 13:12N 37°57' W 122°26'1 6.4
2017-Jun-15 13:01N 37°56' W 122°25'3 5.1
2017-Jun-15 12:30N 37°58' W 122°26'1 1.9
2017-Jun-15 12:00N 37°59' W 122°26'0 0.0
2017-Jun-15 11:30N 37°59' W 122°26'0 0.0
2017-Jun-15 11:00N 37°59' W 122°26'0 0.1
2017-Jun-15 10:30N 37°59' W 122°26'0 0.0
2017-Jun-15 10:00N 37°59' W 122°26'0 0.0
2017-Jun-15 09:30N 37°59' W 122°26'0 0.0
2017-Jun-15 09:00N 37°59' W 122°26'0 0.1
2017-Jun-15 08:22N 37°59' W 122°26'0 0.0
2017-Jun-15 05:51N 37°59' W 122°26'0 0.0
2017-Jun-15 05:25N 37°59' W 122°26'0 0.1
2017-Jun-15 04:47N 37°59' W 122°26'0 0.0
2017-Jun-15 04:30N 37°59' W 122°26'  
Track history (hours):
 
Tides and Currents Weather Stations Pressure Air Temp Water Temp Dewpoint Dewpoint Depression Visibility Wind Speed Wind Dir Waves Ship Positions

Arthur Brusco

Owner: Brusco Tug & Barge, Inc, Longview, WA. More information available from US FCC via Universal Licensing System and Coast Guard Vessel Documentation Center.

Last reported at 2017-Jun-25 04:08 UTC. Time now 2017-Jun-25 10:30 UTC.
Position N 37°59' W 122°26'.

Length 35 m; draft 3.2 m.

Type: Other ship. MMSI: 271040404.

Date/timePositionNaut miles runAvg speedWind from/ knotsBaromVisibWave heightAir tempDewpointWater temp
2017-Jun-25 04:08N 37°59' W 122°26'0 0.0
2017-Jun-25 04:00N 37°59' W 122°26'0 0.0
2017-Jun-25 03:31N 37°59' W 122°26'0 0.1
2017-Jun-25 03:00N 37°59' W 122°26'4 8.2
2017-Jun-25 02:31N 38°02' W 122°22'5 9.3
2017-Jun-25 01:59N 38°03' W 122°17'510.4
2017-Jun-25 01:30N 38°03' W 122°10'2 0.5
2017-Jun-24 20:38N 38°04' W 122°13'510.7
2017-Jun-24 20:12N 38°03' W 122°19'310.2
2017-Jun-24 19:57N 38°02' W 122°22'510.8
2017-Jun-24 19:30N 37°58' W 122°26'3 5.3
2017-Jun-24 19:00N 37°56' W 122°25'1 3.0
2017-Jun-24 18:31N 37°57' W 122°26'2 4.5
2017-Jun-24 18:01N 37°59' W 122°26'0 0.0
2017-Jun-24 17:31N 37°59' W 122°26'0 0.0
2017-Jun-24 17:01N 37°59' W 122°26'0 0.1
2017-Jun-24 16:30N 37°59' W 122°26'0 0.1
2017-Jun-24 16:01N 37°59' W 122°26'0 0.1
2017-Jun-24 15:31N 37°59' W 122°26'0 0.0
2017-Jun-24 15:01N 37°59' W 122°26'4 3.5
2017-Jun-24 14:01N 37°56' W 122°25'0 0.4
2017-Jun-24 13:31N 37°56' W 122°25'0 0.4
2017-Jun-24 13:00N 37°55' W 122°25'0 0.1
2017-Jun-24 12:30N 37°56' W 122°25'2 3.3
2017-Jun-24 12:01N 37°57' W 122°26'3 5.4
2017-Jun-24 11:30N 37°60' W 122°25'5 9.6
2017-Jun-24 10:56N 38°03' W 122°19'510.4
2017-Jun-24 10:30N 38°04' W 122°14'4 8.8
2017-Jun-24 10:00N 38°02' W 122°09'4 7.8
2017-Jun-24 09:27N 38°04' W 122°04'4 7.0
2017-Jun-24 08:50N 38°03' W 121°58'2 6.4
2017-Jun-24 08:30N 38°03' W 121°55'2 0.7
2017-Jun-24 06:17N 38°03' W 121°53'10 9.7
2017-Jun-24 05:17N 38°03' W 122°05'3 9.2
2017-Jun-24 05:00N 38°02' W 122°08'5 8.7
2017-Jun-24 04:29N 38°04' W 122°14'4 8.7
2017-Jun-24 03:58N 38°03' W 122°19'4 9.1
2017-Jun-24 03:30N 38°01' W 122°24'4 8.4
2017-Jun-24 03:01N 37°57' W 122°26'1 2.6
2017-Jun-24 02:31N 37°56' W 122°25'2 4.5
2017-Jun-24 02:00N 37°58' W 122°26'1 2.6
2017-Jun-24 01:30N 37°59' W 122°26'0 0.1
2017-Jun-24 01:00N 37°59' W 122°26'0 0.1
2017-Jun-24 00:31N 37°59' W 122°26'0 0.0
2017-Jun-24 00:00N 37°59' W 122°26'0 0.1
2017-Jun-23 23:31N 37°59' W 122°26'0 0.1
2017-Jun-23 23:00N 37°59' W 122°26'0 0.0
2017-Jun-23 22:31N 37°59' W 122°26'0 0.0
2017-Jun-23 22:01N 37°59' W 122°26'0 0.1
2017-Jun-23 21:31N 37°59' W 122°26'0 0.8
2017-Jun-23 21:01N 37°59' W 122°27'4 7.1
2017-Jun-23 20:31N 37°56' W 122°25'0 0.3
2017-Jun-23 20:01N 37°56' W 122°25'0 0.2
2017-Jun-23 19:30N 37°56' W 122°25'1 1.9
2017-Jun-23 19:01N 37°57' W 122°26'3 5.1
2017-Jun-23 18:31N 37°59' W 122°26'0 0.0
2017-Jun-23 18:01N 37°59' W 122°26'0 0.0
2017-Jun-23 17:31N 37°59' W 122°26'0 0.0
2017-Jun-23 17:01N 37°59' W 122°26'0 0.1
2017-Jun-23 16:31N 37°59' W 122°26'0 0.0
2017-Jun-23 16:00N 37°59' W 122°26'0 0.2
2017-Jun-23 15:31N 37°59' W 122°26'0 0.1
2017-Jun-23 15:01N 37°59' W 122°26'0 0.0
2017-Jun-23 14:01N 37°59' W 122°26'0 0.0
2017-Jun-23 13:30N 37°59' W 122°26'0 0.0
2017-Jun-23 13:01N 37°59' W 122°26'0 0.0
2017-Jun-23 12:31N 37°59' W 122°26'0 0.0
2017-Jun-23 12:00N 37°59' W 122°26'0 0.1
2017-Jun-23 11:31N 37°59' W 122°26'0 0.1
2017-Jun-23 11:00N 37°59' W 122°26'0 0.0
2017-Jun-23 10:31N 37°59' W 122°26'0 0.1
2017-Jun-23 10:01N 37°59' W 122°26'0 0.0
2017-Jun-23 09:31N 37°59' W 122°26'0 0.1
2017-Jun-23 09:01N 37°59' W 122°26'0 0.0
2017-Jun-23 08:31N 37°59' W 122°26'0 0.1
2017-Jun-23 08:00N 37°59' W 122°26'0 0.1
2017-Jun-23 07:30N 37°59' W 122°26'0 0.1
2017-Jun-23 07:00N 37°59' W 122°26'0 0.1
2017-Jun-23 06:31N 37°59' W 122°26'3 6.7
2017-Jun-23 06:01N 37°56' W 122°25'1 2.0
2017-Jun-23 05:31N 37°57' W 122°26'2 3.7
2017-Jun-23 05:00N 37°59' W 122°26'0 0.8
2017-Jun-23 04:31N 37°59' W 122°27'0 0.0
2017-Jun-23 04:01N 37°59' W 122°27'0 0.1
2017-Jun-23 03:31N 37°59' W 122°27'0 0.0
2017-Jun-23 03:01N 37°59' W 122°27'0 0.0
2017-Jun-23 02:30N 37°59' W 122°27'0 0.0
2017-Jun-23 02:01N 37°59' W 122°27'0 0.0
2017-Jun-23 01:31N 37°59' W 122°27'0 0.1
2017-Jun-23 01:00N 37°59' W 122°27'0 0.0
2017-Jun-23 00:29N 37°59' W 122°27'0 0.1
2017-Jun-22 23:40N 37°59' W 122°27'0 0.0
2017-Jun-22 23:26N 37°59' W 122°27'0 0.0
2017-Jun-22 23:00N 37°59' W 122°27'0 0.2
2017-Jun-22 22:31N 37°59' W 122°27'0 0.0
2017-Jun-22 22:00N 37°59' W 122°27'0 0.1
2017-Jun-22 21:27N 37°59' W 122°27'0 0.0
2017-Jun-22 21:00N 37°59' W 122°27'0 0.0
2017-Jun-22 20:31N 37°59' W 122°27'0 0.1
2017-Jun-22 20:00N 37°59' W 122°27'0 0.1
2017-Jun-22 19:31N 37°59' W 122°27'0 0.0
2017-Jun-22 19:00N 37°59' W 122°27'0 0.0
2017-Jun-22 18:30N 37°59' W 122°27'0 0.0
2017-Jun-22 18:00N 37°59' W 122°27'0 0.0
2017-Jun-22 17:31N 37°59' W 122°27'0 0.0
2017-Jun-22 17:01N 37°59' W 122°27'0 0.2
2017-Jun-22 16:31N 37°59' W 122°27'3 6.3
2017-Jun-22 15:59N 38°01' W 122°23'4 8.9
2017-Jun-22 15:31N 38°03' W 122°19'5 9.8
2017-Jun-22 14:59N 38°03' W 122°12'5 8.4
2017-Jun-22 14:25N 38°03' W 122°06'2 0.4
2017-Jun-22 09:16N 38°02' W 122°08'2 5.0
2017-Jun-22 08:57N 38°03' W 122°10'3 6.7
2017-Jun-22 08:30N 38°04' W 122°14'6 9.0
2017-Jun-22 07:47N 38°02' W 122°22'4 8.8
2017-Jun-22 07:18N 37°59' W 122°26'3 8.6
2017-Jun-22 07:00N 37°56' W 122°26'0 0.8
2017-Jun-22 06:31N 37°56' W 122°26'3 6.0
2017-Jun-22 05:59N 37°59' W 122°26'0 0.0
2017-Jun-22 05:30N 37°59' W 122°26'0 0.0
2017-Jun-22 04:53N 37°59' W 122°26'0 0.0
2017-Jun-22 04:28N 37°59' W 122°26'0 0.0
2017-Jun-22 03:59N 37°59' W 122°26'0 0.0
2017-Jun-22 03:30N 37°59' W 122°26'0 0.0
2017-Jun-22 03:00N 37°59' W 122°26'0 0.0
2017-Jun-22 02:29N 37°59' W 122°26'0 0.0
2017-Jun-22 02:00N 37°59' W 122°26'2 2.9
2017-Jun-22 01:18N 38°01' W 122°25'0 1.2
2017-Jun-22 00:58N 38°00' W 122°25'3 4.7
2017-Jun-22 00:21N 37°58' W 122°26'2 5.4
2017-Jun-22 00:00N 37°56' W 122°25'1 1.3
2017-Jun-21 23:30N 37°56' W 122°26'3 2.3
2017-Jun-21 22:17N 37°59' W 122°26'0 0.0
2017-Jun-21 21:00N 37°59' W 122°26'0 0.1
2017-Jun-21 20:30N 37°59' W 122°26'1 1.7
2017-Jun-21 19:58N 37°58' W 122°26'3 5.5
2017-Jun-21 19:30N 37°56' W 122°25'2 3.9
2017-Jun-21 19:01N 37°58' W 122°26'1 2.7
2017-Jun-21 18:30N 37°59' W 122°27'0 0.8
2017-Jun-21 18:00N 37°59' W 122°26'0 0.0
2017-Jun-21 17:30N 37°59' W 122°26'0 0.0
2017-Jun-21 16:58N 37°59' W 122°26'0 0.0
2017-Jun-21 16:30N 37°59' W 122°26'0 0.0
2017-Jun-21 15:58N 37°59' W 122°26'0 0.0
2017-Jun-21 15:31N 37°59' W 122°26'0 0.0
2017-Jun-21 15:01N 37°59' W 122°26'0 0.0
2017-Jun-21 14:27N 37°59' W 122°26'4 4.0
2017-Jun-21 13:28N 38°02' W 122°23'7 9.6
2017-Jun-21 12:41N 38°04' W 122°13'6 8.4
2017-Jun-21 11:59N 38°03' W 122°06'11 4.4
2017-Jun-21 09:24N 38°04' W 121°51'0 0.3
2017-Jun-21 08:43N 38°04' W 121°52'1 4.2
2017-Jun-21 08:27N 38°03' W 121°52'16 8.5
2017-Jun-21 06:31N 38°04' W 122°13'0 8.6
2017-Jun-21 06:30N 38°04' W 122°13'7 9.1
2017-Jun-21 05:44N 38°02' W 122°22'2 8.9
2017-Jun-21 05:28N 38°00' W 122°24'4 8.2
2017-Jun-21 04:59N 37°56' W 122°26'1 2.4
2017-Jun-21 04:31N 37°56' W 122°25'2 3.0
2017-Jun-21 04:01N 37°57' W 122°26'2 4.0
2017-Jun-21 03:30N 37°59' W 122°27'0 0.0
2017-Jun-21 03:00N 37°59' W 122°27'0 0.0
2017-Jun-21 02:29N 37°59' W 122°27'0 0.0
2017-Jun-21 02:00N 37°59' W 122°27'0 0.0
2017-Jun-21 01:29N 37°59' W 122°27'0 0.0
2017-Jun-21 01:01N 37°59' W 122°27'0 1.0
2017-Jun-21 00:30N 37°59' W 122°26'1 1.6
2017-Jun-20 23:54N 37°60' W 122°25'3 6.0
2017-Jun-20 23:27N 37°57' W 122°26'2 3.4
2017-Jun-20 23:00N 37°56' W 122°25'3 6.0
2017-Jun-20 22:30N 37°58' W 122°26'2 3.0
2017-Jun-20 21:48N 37°56' W 122°27'3 9.1
2017-Jun-20 21:30N 37°54' W 122°26'510.6
2017-Jun-20 21:01N 37°49' W 122°24'4 7.5
2017-Jun-20 20:31N 37°49' W 122°20'0 0.7
2017-Jun-20 20:00N 37°49' W 122°20'3 6.9
2017-Jun-20 19:30N 37°49' W 122°24'0 0.2
2017-Jun-20 19:01N 37°49' W 122°24'0 0.1
2017-Jun-20 18:30N 37°49' W 122°24'0 0.2
2017-Jun-20 18:00N 37°49' W 122°24'0 0.0
2017-Jun-20 17:30N 37°49' W 122°24'0 0.0
2017-Jun-20 17:01N 37°49' W 122°24'0 0.0
2017-Jun-20 16:31N 37°49' W 122°24'0 0.0
2017-Jun-20 16:01N 37°49' W 122°24'4 8.1
2017-Jun-20 15:31N 37°53' W 122°25'3 6.1
2017-Jun-20 15:01N 37°56' W 122°25'4 3.7
2017-Jun-20 14:00N 37°59' W 122°26'0 0.5
2017-Jun-20 13:30N 37°59' W 122°27'0 0.0
2017-Jun-20 13:00N 37°59' W 122°27'0 0.2
2017-Jun-20 12:31N 37°59' W 122°27'0 0.1
2017-Jun-20 12:01N 37°59' W 122°27'0 0.0
2017-Jun-20 11:31N 37°59' W 122°27'0 0.0
2017-Jun-20 11:01N 37°59' W 122°27'0 0.0
2017-Jun-20 10:30N 37°59' W 122°27'0 0.0
2017-Jun-20 10:01N 37°59' W 122°27'1 1.5
2017-Jun-20 09:30N 37°59' W 122°26'6 9.8
2017-Jun-20 08:54N 38°03' W 122°20'4 9.7
2017-Jun-20 08:30N 38°04' W 122°15'5 9.9
2017-Jun-20 08:00N 38°02' W 122°09'4 0.6
2017-Jun-20 02:08N 38°04' W 122°13'1 9.1
2017-Jun-20 01:59N 38°04' W 122°15'5 7.9
2017-Jun-20 01:17N 38°02' W 122°21'2 8.7
2017-Jun-20 01:00N 38°00' W 122°24'4 8.6
2017-Jun-20 00:30N 37°56' W 122°26'1 2.1
2017-Jun-20 00:00N 37°56' W 122°25'3 5.1
2017-Jun-19 23:31N 37°58' W 122°26'1 2.4
2017-Jun-19 23:01N 37°59' W 122°26'0 0.1
2017-Jun-19 22:30N 37°59' W 122°26'0 0.2
2017-Jun-19 22:01N 37°59' W 122°26'0 0.1
2017-Jun-19 21:31N 37°59' W 122°26'0 0.3
2017-Jun-19 21:01N 37°59' W 122°26'2 3.4
2017-Jun-19 20:30N 38°00' W 122°25'2 3.3
2017-Jun-19 20:01N 37°59' W 122°26'3 5.2
2017-Jun-19 19:31N 37°56' W 122°26'1 1.6
2017-Jun-19 19:01N 37°56' W 122°25'3 6.5
2017-Jun-19 18:31N 37°59' W 122°26'1 1.0
2017-Jun-19 17:46N 37°59' W 122°27'0 0.0
2017-Jun-19 17:24N 37°59' W 122°27'0 0.0
2017-Jun-19 17:00N 37°59' W 122°27'0 0.0
2017-Jun-19 16:29N 37°59' W 122°27'0 0.0
2017-Jun-19 15:50N 37°59' W 122°27'0 0.0
2017-Jun-19 15:24N 37°59' W 122°27'0 0.0
2017-Jun-19 15:00N 37°59' W 122°27'3 3.1
2017-Jun-19 14:00N 37°56' W 122°26'4 7.1
2017-Jun-19 13:30N 37°54' W 122°22'3 5.2
2017-Jun-19 13:00N 37°56' W 122°25'3 5.3
2017-Jun-19 12:30N 37°54' W 122°22'0 0.0
2017-Jun-19 12:00N 37°54' W 122°22'0 0.0
2017-Jun-19 11:30N 37°54' W 122°22'0 0.0
2017-Jun-19 11:00N 37°54' W 122°22'0 0.0
2017-Jun-19 10:30N 37°54' W 122°22'0 0.0
2017-Jun-19 10:00N 37°54' W 122°22'2 5.0
2017-Jun-19 09:31N 37°55' W 122°25'0 0.8
2017-Jun-19 09:00N 37°56' W 122°25'4 7.1
2017-Jun-19 08:30N 37°59' W 122°27'0 0.0
2017-Jun-18 19:39N 37°59' W 122°27'0 1.5
2017-Jun-18 19:30N 37°59' W 122°27'4 7.1
2017-Jun-18 18:59N 38°01' W 122°23'611.3
2017-Jun-18 18:27N 38°04' W 122°16'510.7
2017-Jun-18 18:00N 38°02' W 122°10'14 3.6
2017-Jun-18 14:01N 38°04' W 121°52'11 8.6
2017-Jun-18 12:47N 38°03' W 122°05'2 8.8
2017-Jun-18 12:30N 38°02' W 122°08'4 7.7
2017-Jun-18 12:00N 38°03' W 122°13'4 7.7
2017-Jun-18 11:30N 38°03' W 122°17'4 7.8
2017-Jun-18 11:00N 38°02' W 122°22'6 8.5
2017-Jun-18 10:19N 37°57' W 122°26'2 5.3
2017-Jun-18 10:00N 37°55' W 122°25'0 0.1
2017-Jun-18 07:48N 37°55' W 122°25'0 0.0
2017-Jun-18 07:30N 37°55' W 122°25'0 0.0
2017-Jun-18 07:00N 37°55' W 122°25'0 0.0
2017-Jun-18 06:30N 37°55' W 122°25'0 0.0
2017-Jun-18 06:00N 37°55' W 122°25'0 0.0
2017-Jun-18 05:30N 37°55' W 122°25'0 0.0
2017-Jun-18 05:00N 37°55' W 122°25'0 0.2
2017-Jun-18 04:30N 37°55' W 122°25'1 1.2
2017-Jun-18 04:00N 37°56' W 122°25'3 6.0
2017-Jun-18 03:30N 37°58' W 122°26'1 1.5
2017-Jun-18 02:59N 37°59' W 122°27'0 0.1
2017-Jun-18 02:30N 37°59' W 122°27'0 0.0
2017-Jun-17 18:07N 37°59' W 122°27'0 3.0
2017-Jun-17 17:59N 37°59' W 122°26'611.4
2017-Jun-17 17:27N 38°03' W 122°20'511.4
2017-Jun-17 17:00N 38°04' W 122°14'4 0.8
2017-Jun-17 11:56N 38°02' W 122°09'4 8.5
2017-Jun-17 11:30N 38°04' W 122°13'5 8.1
2017-Jun-17 10:55N 38°03' W 122°19'4 8.8
2017-Jun-17 10:28N 38°01' W 122°23'4 9.1
2017-Jun-17 09:59N 37°57' W 122°26'2 3.2
2017-Jun-17 09:30N 37°56' W 122°25'3 5.4
2017-Jun-17 09:00N 37°54' W 122°22'0 0.0
2017-Jun-17 08:30N 37°54' W 122°22'0 0.0
2017-Jun-17 08:00N 37°54' W 122°22'0 0.0
2017-Jun-17 07:30N 37°54' W 122°22'0 0.0
2017-Jun-17 07:00N 37°54' W 122°22'0 0.0
2017-Jun-17 06:30N 37°54' W 122°22'0 0.0
2017-Jun-17 06:01N 37°54' W 122°22'0 0.0
2017-Jun-17 05:28N 37°54' W 122°22'0 0.0
2017-Jun-17 05:00N 37°54' W 122°22'1 2.4
2017-Jun-17 04:30N 37°54' W 122°24'2 3.4
2017-Jun-17 04:00N 37°56' W 122°25'3 6.5
2017-Jun-17 03:30N 37°59' W 122°26'0 0.9
2017-Jun-17 03:00N 37°59' W 122°26'0 0.0
2017-Jun-17 02:01N 37°59' W 122°26'0 0.0
2017-Jun-17 01:54N 37°59' W 122°26'0 0.0
2017-Jun-17 01:20N 37°59' W 122°26'0 0.0
2017-Jun-17 00:57N 37°59' W 122°26'0 0.0
2017-Jun-17 00:30N 37°59' W 122°26'0 0.0
2017-Jun-16 23:59N 37°59' W 122°26'0 0.0
2017-Jun-16 23:29N 37°59' W 122°26'0 0.0
2017-Jun-16 23:00N 37°59' W 122°26'0 0.1
2017-Jun-16 22:30N 37°59' W 122°26'0 0.0
2017-Jun-16 22:00N 37°59' W 122°26'0 0.0
2017-Jun-16 21:30N 37°59' W 122°26'0 0.0
2017-Jun-16 21:00N 37°59' W 122°26'0 0.1
2017-Jun-16 20:30N 37°59' W 122°26'0 0.1
2017-Jun-16 20:00N 37°59' W 122°26'0 0.0
2017-Jun-16 19:24N 37°59' W 122°26'0 0.0
2017-Jun-16 19:00N 37°59' W 122°26'0 0.1
2017-Jun-16 18:19N 37°59' W 122°26'0 0.0
2017-Jun-16 17:34N 37°59' W 122°26'0 0.0
2017-Jun-16 17:15N 37°59' W 122°26'0 0.0
2017-Jun-16 17:00N 37°59' W 122°26'0 0.0
2017-Jun-16 16:30N 37°59' W 122°26'4 7.0
2017-Jun-16 15:59N 38°01' W 122°23'511.2
2017-Jun-16 15:30N 38°03' W 122°17'510.4
2017-Jun-16 15:00N 38°02' W 122°10'3 0.5
2017-Jun-16 09:40N 38°04' W 122°13'1 8.2
2017-Jun-16 09:30N 38°04' W 122°15'4 8.4
2017-Jun-16 09:00N 38°03' W 122°20'6 9.4
2017-Jun-16 08:24N 37°59' W 122°25'3 8.1
2017-Jun-16 08:00N 37°56' W 122°25'3 5.5
2017-Jun-16 07:30N 37°58' W 122°26'1 1.0
2017-Jun-16 07:00N 37°59' W 122°27'0 0.0
2017-Jun-16 06:29N 37°59' W 122°27'0 0.0
2017-Jun-16 06:00N 37°59' W 122°27'0 0.0
2017-Jun-16 05:26N 37°59' W 122°27'0 0.0
2017-Jun-16 05:00N 37°59' W 122°27'0 0.1
2017-Jun-16 04:30N 37°59' W 122°27'0 0.0
2017-Jun-16 04:00N 37°59' W 122°27'0 0.2
2017-Jun-16 03:28N 37°59' W 122°27'0 0.0
2017-Jun-16 02:54N 37°59' W 122°27'0 0.0
2017-Jun-16 02:29N 37°59' W 122°27'0 0.1
2017-Jun-16 01:59N 37°59' W 122°27'0 0.1
2017-Jun-16 01:30N 37°59' W 122°27'0 0.0
2017-Jun-16 00:53N 37°59' W 122°27'0 0.0
2017-Jun-16 00:28N 37°59' W 122°27'0 0.0
2017-Jun-15 23:57N 37°59' W 122°27'0 0.0
2017-Jun-15 23:21N 37°59' W 122°27'0 0.0
2017-Jun-15 22:55N 37°59' W 122°27'0 0.0
2017-Jun-15 22:27N 37°59' W 122°27'0 0.0
2017-Jun-15 22:00N 37°59' W 122°27'0 0.2
2017-Jun-15 21:30N 37°59' W 122°27'610.3
2017-Jun-15 20:56N 38°02' W 122°21'512.3
2017-Jun-15 20:30N 38°04' W 122°14'711.1
2017-Jun-15 19:54N 38°03' W 122°05'3 0.6
2017-Jun-15 15:24N 38°02' W 122°09'3 7.4
2017-Jun-15 14:58N 38°03' W 122°12'8 7.8
2017-Jun-15 13:57N 38°02' W 122°22'6 7.7
2017-Jun-15 13:12N 37°57' W 122°26'1 6.4
2017-Jun-15 13:01N 37°56' W 122°25'3 5.1
2017-Jun-15 12:30N 37°58' W 122°26'1 1.9
2017-Jun-15 12:00N 37°59' W 122°26'0 0.0
2017-Jun-15 11:30N 37°59' W 122°26'0 0.0
2017-Jun-15 11:00N 37°59' W 122°26'0 0.1
2017-Jun-15 10:30N 37°59' W 122°26'0 0.0
2017-Jun-15 10:00N 37°59' W 122°26'0 0.0
2017-Jun-15 09:30N 37°59' W 122°26'0 0.0
2017-Jun-15 09:00N 37°59' W 122°26'0 0.1
2017-Jun-15 08:22N 37°59' W 122°26'0 0.0
2017-Jun-15 05:51N 37°59' W 122°26'0 0.0
2017-Jun-15 05:25N 37°59' W 122°26'0 0.1
2017-Jun-15 04:47N 37°59' W 122°26'0 0.0
2017-Jun-15 04:30N 37°59' W 122°26'  

Dump ship's entire track history